Terminal Aerodrome Forecast
Issued by NWS

Home | Current Version | Previous Version | Text Only | Print | Product List | Glossary On
Versions: 1 2 3 4 5 6 7 8 9 10 11 12 13 14 15 16 17
155
FTUS46 KSEW 141123
TAFOLM
TAF
KOLM 141123Z 1412/1512 00000KT 1/4SM FZFG VV001
      TEMPO 1416/1419 2SM BR SCT002
     FM141900 04006KT P6SM BKN200
     FM150300 VRB03KT P6SM BKN150
     FM150800 21006KT P6SM SCT020 BKN040 BKN120=

USA.gov is the U.S. government's official web portal to all federal, state and local government web resources and services.